createdAt,value
2022-11-05T00:00:16.784Z,11.13
2022-11-05T00:03:03.383Z,11.32
2022-11-05T00:05:48.918Z,12.35
2022-11-05T00:08:35.759Z,11.65
2022-11-05T00:11:02.614Z,9.88
2022-11-05T00:13:50.646Z,10.05
2022-11-05T00:16:40.202Z,11.82
2022-11-05T00:19:07.435Z,11.23
2022-11-05T00:21:54.138Z,9.25
2022-11-05T00:24:42.209Z,10.20
2022-11-05T00:27:09.340Z,9.20
2022-11-05T00:29:36.006Z,10.80
2022-11-05T00:32:04.610Z,11.40
2022-11-05T00:34:31.359Z,11.25
2022-11-05T00:36:58.006Z,8.30
2022-11-05T00:39:26.328Z,9.75
2022-11-05T00:42:11.925Z,10.03
2022-11-05T00:44:57.396Z,8.60
2022-11-05T00:47:42.572Z,9.57
2022-11-05T00:50:10.846Z,9.30
2022-11-05T00:52:56.160Z,9.48
2022-11-05T00:55:26.470Z,9.05
2022-11-05T00:57:54.199Z,10.20
2022-11-05T01:00:23.265Z,10.38
2022-11-05T01:02:50.031Z,9.82
2022-11-05T01:05:17.249Z,9.05
2022-11-05T01:07:43.946Z,10.27
2022-11-05T01:10:10.693Z,9.65
2022-11-05T01:12:38.927Z,10.88
2022-11-05T01:15:06.984Z,10.05
2022-11-05T01:17:33.637Z,10.67
2022-11-05T01:20:00.301Z,10.02
2022-11-05T01:22:27.201Z,10.50
2022-11-05T01:24:53.847Z,10.60
2022-11-05T01:27:20.533Z,10.10
2022-11-05T01:29:48.632Z,10.93
2022-11-05T01:32:15.390Z,11.13
2022-11-05T01:34:42.415Z,9.20
2022-11-05T01:37:09.202Z,10.43
2022-11-05T01:39:36.165Z,9.95
2022-11-05T01:42:03.082Z,10.98
2022-11-05T01:44:53.185Z,10.02
2022-11-05T01:47:32.443Z,9.30
2022-11-05T01:50:02.619Z,10.88
2022-11-05T01:52:32.288Z,10.15
2022-11-05T01:54:59.525Z,10.70
2022-11-05T01:57:27.341Z,10.93
2022-11-05T01:59:58.935Z,9.45
2022-11-05T02:02:26.241Z,10.32
2022-11-05T02:04:57.752Z,10.05
2022-11-05T02:07:27.030Z,10.05
2022-11-05T02:09:59.132Z,9.90
2022-11-05T02:12:26.665Z,8.63
2022-11-05T02:14:54.362Z,10.15
2022-11-05T02:17:39.519Z,11.23
2022-11-05T02:20:18.741Z,11.07
2022-11-05T02:23:37.799Z,10.02
2022-11-05T02:26:24.343Z,9.63
2022-11-05T02:29:25.888Z,8.93
2022-11-05T02:32:04.417Z,10.48
2022-11-05T02:34:42.271Z,9.68
2022-11-05T02:37:17.740Z,10.82
2022-11-05T02:39:54.033Z,8.45
2022-11-05T02:42:30.373Z,8.82
2022-11-05T02:45:03.092Z,8.98
2022-11-05T02:47:40.522Z,9.82
2022-11-05T02:50:18.741Z,10.13
2022-11-05T02:52:52.861Z,10.80
2022-11-05T02:55:25.870Z,9.52
2022-11-05T02:57:53.283Z,9.55
2022-11-05T03:00:41.979Z,8.52
2022-11-05T03:03:37.103Z,9.73
2022-11-05T03:06:21.746Z,9.05
2022-11-05T03:09:10.284Z,8.90
2022-11-05T03:11:49.565Z,8.50
2022-11-05T03:14:23.794Z,8.90
2022-11-05T03:16:58.854Z,9.18
2022-11-05T03:19:35.553Z,9.13
2022-11-05T03:22:07.501Z,10.23
2022-11-05T03:24:38.273Z,9.57
2022-11-05T03:27:08.210Z,8.00
2022-11-05T03:29:41.225Z,8.38
2022-11-05T03:32:10.000Z,7.68
2022-11-05T03:34:42.452Z,8.40
2022-11-05T03:37:11.026Z,8.70
2022-11-05T03:39:40.940Z,7.68
2022-11-05T03:42:13.201Z,7.25
2022-11-05T03:44:46.196Z,9.48
2022-11-05T03:47:21.703Z,7.45
2022-11-05T03:49:56.123Z,7.53
2022-11-05T03:52:27.869Z,6.63
2022-11-05T03:54:54.803Z,8.10
2022-11-05T03:57:25.769Z,6.72
2022-11-05T03:59:56.125Z,8.02
2022-11-05T04:02:25.859Z,6.72
2022-11-05T04:04:56.726Z,8.75
2022-11-05T04:07:41.819Z,7.53
2022-11-05T04:10:28.591Z,7.60
2022-11-05T04:13:13.783Z,7.93
2022-11-05T04:15:59.165Z,9.60
2022-11-05T04:18:27.489Z,11.35
2022-11-05T04:21:14.578Z,7.22
2022-11-05T04:23:59.985Z,8.40
2022-11-05T04:26:27.041Z,7.22
2022-11-05T04:29:12.552Z,7.90
2022-11-05T04:31:39.706Z,7.15
2022-11-05T04:34:06.472Z,8.65
2022-11-05T04:36:34.719Z,8.65
2022-11-05T04:39:01.604Z,7.82
2022-11-05T04:41:28.252Z,6.72
2022-11-05T04:43:55.016Z,9.32
2022-11-05T04:46:21.577Z,7.68
2022-11-05T04:48:48.516Z,7.93
2022-11-05T04:51:15.408Z,7.78
2022-11-05T04:53:43.669Z,9.73
2022-11-05T04:56:11.542Z,8.75
2022-11-05T04:58:42.079Z,8.38
2022-11-05T05:01:12.907Z,7.75
2022-11-05T05:03:40.145Z,7.95
2022-11-05T05:06:07.224Z,9.30
2022-11-05T05:08:34.975Z,8.40
2022-11-05T05:11:04.529Z,8.52
2022-11-05T05:13:32.139Z,9.02
2022-11-05T05:15:59.088Z,10.30
2022-11-05T05:18:26.829Z,9.05
2022-11-05T05:21:15.816Z,9.40
2022-11-05T05:23:44.029Z,9.15
2022-11-05T05:26:12.244Z,8.68
2022-11-05T05:28:38.869Z,9.60
2022-11-05T05:31:06.037Z,8.43
2022-11-05T05:33:32.717Z,9.52
2022-11-05T05:36:00.281Z,10.30
2022-11-05T05:38:27.126Z,10.35
2022-11-05T05:40:58.387Z,10.23
2022-11-05T05:43:28.979Z,10.45
2022-11-05T05:45:57.299Z,9.52
2022-11-05T05:48:24.231Z,10.35
2022-11-05T05:50:52.490Z,9.93
2022-11-05T05:53:21.626Z,11.25
2022-11-05T05:55:48.578Z,11.95
2022-11-05T05:58:15.974Z,10.95
2022-11-05T06:00:43.941Z,10.63
2022-11-05T06:03:11.014Z,10.63
2022-11-05T06:05:39.472Z,9.50
2022-11-05T06:08:06.427Z,10.63
2022-11-05T06:10:33.208Z,10.38
2022-11-05T06:13:01.617Z,12.18
2022-11-05T06:15:33.168Z,9.60
2022-11-05T06:18:04.183Z,10.73
2022-11-05T06:20:30.750Z,9.95
2022-11-05T06:22:57.817Z,12.05
2022-11-05T06:25:25.620Z,9.65
2022-11-05T06:27:53.586Z,10.73
2022-11-05T06:30:21.736Z,12.00
2022-11-05T06:32:51.551Z,10.67
2022-11-05T06:35:19.540Z,10.30
2022-11-05T06:37:46.191Z,10.95
2022-11-05T06:40:13.115Z,11.95
2022-11-05T06:42:39.730Z,13.40
2022-11-05T06:45:07.868Z,12.50
2022-11-05T06:47:34.765Z,11.23
2022-11-05T06:50:01.437Z,9.55
2022-11-05T06:52:31.298Z,12.75
2022-11-05T06:54:58.196Z,13.55
2022-11-05T06:57:25.208Z,11.68
2022-11-05T06:59:57.120Z,10.63
2022-11-05T07:02:27.296Z,12.52
2022-11-05T07:04:54.063Z,11.48
2022-11-05T07:07:20.967Z,14.35
2022-11-05T07:09:52.208Z,11.98
2022-11-05T07:12:18.861Z,11.95
2022-11-05T07:14:45.804Z,12.70
2022-11-05T07:17:13.866Z,12.27
2022-11-05T07:19:40.524Z,11.83
2022-11-05T07:22:07.175Z,11.95
2022-11-05T07:24:34.097Z,11.27
2022-11-05T07:27:02.064Z,12.05
2022-11-05T07:29:28.736Z,12.65
2022-11-05T07:31:55.383Z,12.32
2022-11-05T07:34:22.233Z,13.98
2022-11-05T07:36:48.910Z,14.02
2022-11-05T07:39:15.553Z,13.98
2022-11-05T07:41:43.051Z,12.82
2022-11-05T07:44:11.749Z,13.13
2022-11-05T07:46:40.696Z,13.90
2022-11-05T07:51:33.925Z,14.40
2022-11-05T07:54:00.763Z,15.05
2022-11-05T07:56:27.482Z,13.98
2022-11-05T07:58:54.606Z,14.60
2022-11-05T08:01:22.857Z,14.68
2022-11-05T08:03:49.807Z,15.25
2022-11-05T08:06:16.602Z,14.55
2022-11-05T08:08:43.308Z,13.30
2022-11-05T08:11:11.341Z,14.43
2022-11-05T08:13:38.654Z,15.97
2022-11-05T08:16:06.009Z,14.52
2022-11-05T08:18:35.956Z,14.23
2022-11-05T08:21:05.343Z,12.60
2022-11-05T08:23:32.899Z,12.82
2022-11-05T08:26:02.212Z,14.32
2022-11-05T08:28:28.860Z,14.13
2022-11-05T08:30:56.926Z,13.45
2022-11-05T08:33:25.743Z,11.33
2022-11-05T08:35:53.718Z,12.75
2022-11-05T08:38:22.075Z,15.82
2022-11-05T08:40:55.022Z,15.82
2022-11-05T08:43:24.790Z,13.23
2022-11-05T08:45:51.512Z,13.05
2022-11-05T08:48:19.288Z,13.75
2022-11-05T08:50:48.348Z,15.95
2022-11-05T08:53:16.988Z,15.32
2022-11-05T08:55:44.155Z,14.93
2022-11-05T08:58:15.000Z,14.35
2022-11-05T09:00:42.004Z,13.77
2022-11-05T09:03:09.736Z,13.63
2022-11-05T09:05:39.131Z,12.93
2022-11-05T09:08:08.394Z,13.55
2022-11-05T09:10:37.140Z,14.07
2022-11-05T09:13:04.587Z,13.77
2022-11-05T09:15:32.405Z,11.95
2022-11-05T09:18:01.836Z,13.32
2022-11-05T09:20:28.858Z,13.13
2022-11-05T09:22:55.454Z,13.13
2022-11-05T09:25:22.121Z,15.32
2022-11-05T09:27:51.658Z,14.43
2022-11-05T09:30:18.781Z,12.65
2022-11-05T09:32:45.577Z,12.35
2022-11-05T09:35:12.243Z,13.02
2022-11-05T09:37:39.004Z,12.73
2022-11-05T09:40:07.170Z,12.77
2022-11-05T09:42:39.592Z,13.67
2022-11-05T09:45:15.036Z,10.77
2022-11-05T09:47:46.912Z,13.02
2022-11-05T09:50:16.184Z,13.15
2022-11-05T09:52:43.036Z,11.43
2022-11-05T09:55:20.932Z,13.73
2022-11-05T09:57:54.085Z,11.93
2022-11-05T10:00:22.554Z,12.32
2022-11-05T10:02:53.672Z,12.27
2022-11-05T10:05:22.392Z,14.00
2022-11-05T10:07:51.394Z,12.73
2022-11-05T10:10:31.083Z,13.40
2022-11-05T10:13:02.173Z,14.55
2022-11-05T10:15:34.388Z,14.23
2022-11-05T10:18:10.175Z,11.65
2022-11-05T10:20:39.010Z,12.05
2022-11-05T10:25:39.624Z,10.35
2022-11-05T10:28:07.900Z,11.15
2022-11-05T10:30:36.161Z,11.82
2022-11-05T10:33:05.651Z,13.15
2022-11-05T10:35:39.655Z,12.00
2022-11-05T10:38:06.795Z,11.88
2022-11-05T10:40:45.860Z,12.20
2022-11-05T10:43:17.739Z,11.60
2022-11-05T10:45:52.523Z,14.93
2022-11-05T10:48:37.033Z,11.05
2022-11-05T10:51:08.698Z,11.07
2022-11-05T10:53:38.567Z,13.48
2022-11-05T10:56:31.344Z,11.05
2022-11-05T10:59:00.543Z,10.93
2022-11-05T11:01:29.565Z,13.32
2022-11-05T11:04:08.530Z,11.88
2022-11-05T11:06:39.106Z,11.32
2022-11-05T11:09:18.518Z,12.35
2022-11-05T11:11:45.701Z,11.68
2022-11-05T11:14:22.344Z,12.40
2022-11-05T11:16:51.713Z,11.50
2022-11-05T11:19:25.884Z,12.77
2022-11-05T11:22:18.902Z,12.95
2022-11-05T11:24:48.112Z,12.65
2022-11-05T11:27:17.902Z,9.80
2022-11-05T11:29:49.828Z,11.40
2022-11-05T11:32:20.369Z,12.02
2022-11-05T11:34:51.336Z,10.82
2022-11-05T11:37:23.750Z,10.63
2022-11-05T11:39:54.297Z,11.75
2022-11-05T11:42:27.913Z,10.27
2022-11-05T11:44:56.411Z,12.55
2022-11-05T11:47:26.952Z,9.98
2022-11-05T11:49:54.921Z,11.05
2022-11-05T11:52:28.114Z,10.60
2022-11-05T11:55:17.103Z,9.63
2022-11-05T11:57:45.950Z,11.73
2022-11-05T12:03:05.145Z,8.98
2022-11-05T12:05:39.950Z,11.02
2022-11-05T12:08:22.767Z,9.80
2022-11-05T12:11:01.343Z,9.18
2022-11-05T12:14:09.908Z,10.40
2022-11-05T12:19:54.057Z,9.38
2022-11-05T12:22:31.491Z,10.55
2022-11-05T12:25:22.867Z,9.63
2022-11-05T12:28:10.516Z,9.18
2022-11-05T12:30:53.319Z,9.27
2022-11-05T12:33:27.514Z,7.70
2022-11-05T12:36:09.677Z,9.60
2022-11-05T12:38:58.739Z,9.45
2022-11-05T12:41:31.301Z,10.38
2022-11-05T12:44:16.076Z,9.60
2022-11-05T12:46:52.632Z,10.85
2022-11-05T12:49:35.459Z,12.18
2022-11-05T12:52:21.821Z,9.98
2022-11-05T12:54:59.851Z,10.18
2022-11-05T12:57:30.066Z,10.98
2022-11-05T13:00:04.769Z,12.00
2022-11-05T13:02:37.741Z,12.15
2022-11-05T13:05:06.670Z,9.98
2022-11-05T13:10:25.245Z,9.32
2022-11-05T13:13:05.085Z,11.02
2022-11-05T13:15:36.360Z,9.55
2022-11-05T13:18:09.443Z,9.68
2022-11-05T13:20:39.987Z,9.73
2022-11-05T13:23:16.303Z,9.70
2022-11-05T13:25:50.813Z,9.88
2022-11-05T13:28:28.092Z,10.55
2022-11-05T13:30:58.383Z,10.38
2022-11-05T13:33:31.807Z,10.95
2022-11-05T13:36:25.302Z,10.35
2022-11-05T13:39:01.315Z,11.07
2022-11-05T13:41:53.519Z,11.32
2022-11-05T13:45:04.745Z,11.77
2022-11-05T13:47:50.412Z,12.85
2022-11-05T13:50:30.951Z,10.68
2022-11-05T13:53:17.157Z,10.07
2022-11-05T13:56:12.027Z,10.73
2022-11-05T13:59:03.000Z,11.57
2022-11-05T14:01:45.606Z,10.20
2022-11-05T14:04:21.328Z,11.57
2022-11-05T14:06:48.173Z,14.30
2022-11-05T14:09:19.941Z,11.40
2022-11-05T14:11:52.829Z,11.00
2022-11-05T14:14:23.903Z,14.32
2022-11-05T14:16:53.106Z,11.18
2022-11-05T14:19:50.233Z,11.23
2022-11-05T14:22:37.706Z,10.98
2022-11-05T14:25:37.704Z,10.77
2022-11-05T14:28:28.519Z,12.38
2022-11-05T14:30:55.333Z,10.32
2022-11-05T14:33:37.334Z,11.50
2022-11-05T14:36:33.897Z,9.25
2022-11-05T14:39:13.989Z,12.30
2022-11-05T14:42:00.721Z,11.88
2022-11-05T14:44:29.869Z,10.75
2022-11-05T14:46:59.826Z,10.00
2022-11-05T14:49:30.495Z,11.77
2022-11-05T14:51:59.527Z,9.55
2022-11-05T14:54:33.270Z,9.20
2022-11-05T14:57:02.532Z,10.43
2022-11-05T15:00:01.166Z,9.07
2022-11-05T15:02:34.465Z,9.43
2022-11-05T15:05:37.245Z,9.93
2022-11-05T15:08:27.977Z,8.98
2022-11-05T15:11:02.706Z,8.00
2022-11-05T15:13:33.677Z,8.13
2022-11-05T15:16:03.704Z,9.25
2022-11-05T15:18:35.379Z,11.75
2022-11-05T15:21:04.834Z,9.45
2022-11-05T15:23:38.937Z,9.23
2022-11-05T15:26:10.985Z,8.13
2022-11-05T15:28:40.679Z,8.90
2022-11-05T15:31:24.603Z,9.05
2022-11-05T15:33:51.214Z,9.68
2022-11-05T15:36:24.080Z,8.93
2022-11-05T15:39:15.050Z,8.57
2022-11-05T15:41:38.629Z,8.57
2022-11-05T15:44:05.276Z,8.30
2022-11-05T15:46:33.349Z,11.00
2022-11-05T15:49:04.826Z,8.43
2022-11-05T15:51:31.633Z,8.63
2022-11-05T15:54:29.816Z,8.27
2022-11-05T15:56:50.453Z,7.50
2022-11-05T15:59:19.421Z,9.13
2022-11-05T16:01:50.023Z,10.32
2022-11-05T16:04:19.711Z,9.40
2022-11-05T16:06:49.024Z,9.88
2022-11-05T16:09:27.600Z,9.15
2022-11-05T16:12:13.152Z,9.20
2022-11-05T16:14:40.737Z,11.60
2022-11-05T16:17:20.875Z,9.25
2022-11-05T16:19:52.212Z,8.80
2022-11-05T16:22:19.777Z,9.10
2022-11-05T16:24:53.470Z,7.75
2022-11-05T16:27:22.943Z,8.80
2022-11-05T16:29:52.603Z,10.23
2022-11-05T16:32:29.491Z,9.75
2022-11-05T16:34:59.177Z,8.43
2022-11-05T16:37:27.462Z,8.60
2022-11-05T16:39:55.556Z,8.13
2022-11-05T16:42:40.260Z,8.77
2022-11-05T16:45:10.203Z,8.02
2022-11-05T16:47:38.372Z,10.07
2022-11-05T16:50:14.721Z,8.48
2022-11-05T16:52:41.549Z,8.50
2022-11-05T16:55:09.432Z,9.52
2022-11-05T16:57:36.177Z,10.18
2022-11-05T17:00:04.381Z,11.23
2022-11-05T17:02:31.202Z,11.05
2022-11-05T17:04:59.385Z,10.32
2022-11-05T17:07:25.965Z,10.73
2022-11-05T17:09:52.672Z,9.07
2022-11-05T17:12:19.268Z,9.95
2022-11-05T17:14:45.939Z,8.88
2022-11-05T17:17:12.557Z,8.35
2022-11-05T17:19:43.127Z,7.97
2022-11-05T17:22:11.099Z,7.63
2022-11-05T17:24:39.037Z,8.93
2022-11-05T17:27:05.696Z,9.05
2022-11-05T17:29:32.344Z,8.43
2022-11-05T17:31:59.111Z,9.07
2022-11-05T17:34:25.673Z,8.75
2022-11-05T17:36:52.364Z,8.90
2022-11-05T17:39:20.759Z,8.60
2022-11-05T17:41:47.878Z,8.43
2022-11-05T17:44:14.624Z,7.85
2022-11-05T17:46:41.196Z,8.52
2022-11-05T17:49:07.864Z,9.10
2022-11-05T17:51:34.921Z,7.82
2022-11-05T17:54:01.703Z,9.10
2022-11-05T17:56:34.957Z,8.60
2022-11-05T17:59:03.228Z,8.90
2022-11-05T18:01:34.856Z,8.88
2022-11-05T18:04:08.243Z,9.02
2022-11-05T18:06:35.518Z,10.57
2022-11-05T18:09:03.083Z,9.50
2022-11-05T18:11:31.051Z,10.02
2022-11-05T18:13:57.830Z,8.93
2022-11-05T18:16:24.567Z,9.48
2022-11-05T18:18:51.262Z,9.85
2022-11-05T18:21:18.188Z,10.02
2022-11-05T18:23:45.103Z,9.00
2022-11-05T18:26:13.826Z,10.43
2022-11-05T18:28:42.180Z,7.60
2022-11-05T18:31:16.859Z,9.32
2022-11-05T18:33:44.824Z,8.55
2022-11-05T18:36:17.066Z,10.27
2022-11-05T18:38:43.681Z,10.23
2022-11-05T18:41:10.376Z,10.73
2022-11-05T18:43:36.954Z,8.50
2022-11-05T18:46:06.225Z,8.82
2022-11-05T18:48:33.131Z,9.30
2022-11-05T18:51:02.059Z,10.38
2022-11-05T18:53:28.925Z,9.25
2022-11-05T18:55:55.534Z,9.45
2022-11-05T18:58:22.132Z,9.57
2022-11-05T19:00:48.803Z,10.35
2022-11-05T19:03:16.773Z,8.95
2022-11-05T19:05:43.402Z,8.97
2022-11-05T19:08:10.260Z,8.93
2022-11-05T19:10:39.877Z,10.23
2022-11-05T19:13:06.461Z,10.40
2022-11-05T19:15:33.182Z,8.93
2022-11-05T19:17:59.864Z,8.25
2022-11-05T19:20:28.148Z,10.52
2022-11-05T19:22:54.766Z,8.55
2022-11-05T19:25:21.445Z,8.93
2022-11-05T19:27:48.130Z,8.93
2022-11-05T19:30:14.796Z,8.35
2022-11-05T19:32:41.503Z,10.45
2022-11-05T19:35:08.802Z,11.90
2022-11-05T19:37:36.773Z,9.85
2022-11-05T19:40:03.898Z,9.43
2022-11-05T19:42:30.551Z,11.18
2022-11-05T19:45:06.825Z,10.90
2022-11-05T19:47:43.549Z,10.55
2022-11-05T19:50:10.351Z,11.27
2022-11-05T19:52:38.405Z,7.82
2022-11-05T19:55:11.861Z,10.67
2022-11-05T19:57:39.183Z,9.65
2022-11-05T20:00:06.922Z,9.27
2022-11-05T20:02:33.635Z,10.48
2022-11-05T20:05:00.279Z,8.75
2022-11-05T20:07:27.468Z,9.00
2022-11-05T20:09:55.447Z,10.05
2022-11-05T20:12:22.328Z,11.43
2022-11-05T20:14:48.950Z,10.57
2022-11-05T20:17:20.313Z,10.73
2022-11-05T20:19:46.938Z,9.77
2022-11-05T20:22:14.409Z,10.32
2022-11-05T20:24:41.040Z,10.10
2022-11-05T20:27:09.764Z,10.52
2022-11-05T20:29:36.694Z,11.10
2022-11-05T20:32:03.993Z,11.05
2022-11-05T20:34:32.415Z,11.15
2022-11-05T20:36:59.428Z,12.32
2022-11-05T20:39:26.114Z,11.55
2022-11-05T20:41:53.593Z,11.02
2022-11-05T20:44:21.685Z,11.50
2022-11-05T20:46:49.164Z,11.15
2022-11-05T20:49:17.254Z,10.45
2022-11-05T20:51:45.662Z,10.63
2022-11-05T20:54:12.305Z,11.00
2022-11-05T20:56:38.965Z,11.32
2022-11-05T20:59:05.827Z,12.70
2022-11-05T21:01:34.392Z,9.73
2022-11-05T21:04:01.876Z,10.52
2022-11-05T21:06:28.637Z,13.38
2022-11-05T21:08:55.375Z,14.18
2022-11-05T21:11:22.710Z,12.00
2022-11-05T21:13:49.518Z,12.40
2022-11-05T21:16:20.944Z,11.02
2022-11-05T21:18:49.027Z,12.88
2022-11-05T21:21:17.961Z,10.88
2022-11-05T21:26:13.271Z,13.93
2022-11-05T21:28:44.438Z,12.70
2022-11-05T21:31:11.196Z,11.27
2022-11-05T21:33:38.049Z,11.75
2022-11-05T21:36:12.052Z,12.60
2022-11-05T21:38:41.553Z,11.23
2022-11-05T21:41:11.719Z,13.80
2022-11-05T21:43:39.349Z,11.30
2022-11-05T21:46:06.148Z,11.68
2022-11-05T21:48:33.005Z,13.75
2022-11-05T21:51:18.341Z,12.40
2022-11-05T21:54:04.587Z,12.25
2022-11-05T21:56:50.512Z,13.15
2022-11-05T21:59:38.800Z,11.85
2022-11-05T22:02:06.827Z,13.38
2022-11-05T22:04:35.453Z,10.93
2022-11-05T22:07:02.844Z,12.60
2022-11-05T22:09:32.202Z,12.40
2022-11-05T22:11:59.773Z,12.95
2022-11-05T22:14:27.257Z,12.57
2022-11-05T22:16:54.274Z,11.07
2022-11-05T22:19:21.500Z,11.52
2022-11-05T22:21:48.835Z,11.52
2022-11-05T22:24:16.747Z,11.82
2022-11-05T22:26:45.372Z,11.45
2022-11-05T22:29:12.894Z,11.73
2022-11-05T22:31:39.813Z,11.98
2022-11-05T22:34:07.632Z,12.95
2022-11-05T22:36:34.990Z,11.38
2022-11-05T22:39:02.375Z,14.85
2022-11-05T22:41:29.173Z,11.88
2022-11-05T22:43:57.753Z,11.60
2022-11-05T22:46:26.065Z,11.85
2022-11-05T22:48:53.309Z,10.85
2022-11-05T22:51:22.114Z,11.00
2022-11-05T22:56:18.610Z,11.60
2022-11-05T22:58:45.451Z,9.35
2022-11-05T23:01:16.061Z,10.70
2022-11-05T23:03:44.701Z,10.93
2022-11-05T23:06:34.731Z,9.75
2022-11-05T23:09:22.801Z,12.60
2022-11-05T23:11:52.829Z,10.35
2022-11-05T23:14:22.488Z,11.68
2022-11-05T23:17:09.426Z,11.48
2022-11-05T23:19:54.589Z,10.32
2022-11-05T23:22:42.951Z,10.27
2022-11-05T23:25:11.852Z,11.02
2022-11-05T23:30:09.776Z,11.07
2022-11-05T23:32:37.770Z,10.45
2022-11-05T23:35:05.500Z,13.13
2022-11-05T23:37:51.228Z,12.38
2022-11-05T23:40:21.781Z,10.95
2022-11-05T23:43:07.460Z,12.68
2022-11-05T23:45:49.500Z,13.27
2022-11-05T23:48:22.407Z,11.45
2022-11-05T23:50:53.243Z,9.45
2022-11-05T23:53:20.944Z,9.27
2022-11-05T23:55:48.080Z,11.23
2022-11-05T23:58:15.321Z,10.00
